This is the latest recevied weather packets stored in our database for station/object YT1XN-8. If no packets are shown the sender has not sent any weather packets the latest 1 day(s).
| Time | Temp. | Humidity | Pressure | Rain* | Wind** | Luminosity | Snow |
|---|---|---|---|---|---|---|---|
| 1778093444 | 21.67° C | 53% | 1010.9 hPa | 0 mm | - | - | - |
| 1778089842 | 23.33° C | 52% | 1010.6 hPa | 0 mm | - | - | - |
| 1778089242 | 23.33° C | 52% | 1010.4 hPa | 0 mm | - | - | - |
| 1778088460 | 23.89° C | 51% | 1010.4 hPa | 0 mm | - | - | - |
| 1778088042 | 23.89° C | 50% | 1010.4 hPa | 0 mm | - | - | - |
| 1778085042 | 25.56° C | 46% | 1010.6 hPa | 0 mm | - | - | - |
| 1778084500 | 25.56° C | 46% | 1010.6 hPa | 0 mm | - | - | - |
| 1778083840 | 25.56° C | 47% | 1010.6 hPa | 0 mm | - | - | - |
| 1778083242 | 26.11° C | 46% | 1010.7 hPa | 0 mm | - | - | - |
| 1778083180 | 26.11° C | 45% | 1010.8 hPa | 0 mm | - | - | - |
| 1778082644 | 26.11° C | 45% | 1010.7 hPa | 0 mm | - | - | - |
| 1778081860 | 26.11° C | 45% | 1010.8 hPa | 0 mm | - | - | - |
| 1778081441 | 26.67° C | 43% | 1010.9 hPa | 0 mm | - | - | - |
| 1778081200 | 26.67° C | 43% | 1010.9 hPa | 0 mm | - | - | - |
| 1778080842 | 26.67° C | 44% | 1011 hPa | 0 mm | - | - | - |
| 1778080540 | 26.67° C | 43% | 1011 hPa | 0 mm | - | - | - |
| 1778079221 | 26.67° C | 42% | 1011.1 hPa | 0 mm | - | - | - |
| 1778078561 | 27.22° C | 43% | 1011.2 hPa | 0 mm | - | - | - |
| 1778077901 | 26.67° C | 43% | 1011.2 hPa | 0 mm | - | - | - |
| 1778077241 | 27.22° C | 42% | 1011.2 hPa | 0 mm | - | - | - |
| 1778076581 | 26.67° C | 42% | 1011.3 hPa | 0 mm | - | - | - |
| 1778075921 | 26.67° C | 41% | 1011.4 hPa | 0 mm | - | - | - |
| 1778075442 | 26.67° C | 44% | 1011.4 hPa | 0 mm | - | - | - |
| 1778075261 | 27.22° C | 42% | 1011.5 hPa | 0 mm | - | - | - |
| 1778074842 | 27.22° C | 44% | 1011.6 hPa | 0 mm | - | - | - |
* Rain latest hour (hover to see other rain measurements)
** Current wind speed in m/s (hover to see current wind gust speed)